sensor_id;sensor_type;location;lat;lon;timestamp;P1;durP1;ratioP1;P2;durP2;ratioP2
40012;SDS011;37387;42.672;23.334;2022-07-29T00:00:19;10.9;;;8.3;;
40012;SDS011;37387;42.672;23.334;2022-07-29T00:01:19;12.4;;;8.4;;
40012;SDS011;37387;42.672;23.334;2022-07-29T00:02:19;12.4;;;8.6;;
40012;SDS011;37387;42.672;23.334;2022-07-29T00:03:19;12.0;;;8.2;;
40012;SDS011;37387;42.672;23.334;2022-07-29T00:06:19;9.9;;;8.0;;
40012;SDS011;37387;42.672;23.334;2022-07-29T00:09:19;10.4;;;7.8;;
40012;SDS011;37387;42.672;23.334;2022-07-29T00:10:19;11.4;;;8.0;;
40012;SDS011;37387;42.672;23.334;2022-07-29T00:11:19;10.8;;;7.8;;
40012;SDS011;37387;42.672;23.334;2022-07-29T00:12:20;10.7;;;7.7;;
40012;SDS011;37387;42.672;23.334;2022-07-29T00:13:19;10.7;;;8.2;;
40012;SDS011;37387;42.672;23.334;2022-07-29T00:14:20;9.9;;;7.8;;
40012;SDS011;37387;42.672;23.334;2022-07-29T00:15:20;9.9;;;8.2;;
40012;SDS011;37387;42.672;23.334;2022-07-29T00:16:20;9.8;;;7.3;;
40012;SDS011;37387;42.672;23.334;2022-07-29T00:17:20;9.8;;;7.5;;
40012;SDS011;37387;42.672;23.334;2022-07-29T00:18:20;11.0;;;7.7;;
40012;SDS011;37387;42.672;23.334;2022-07-29T00:19:20;9.8;;;7.6;;
40012;SDS011;37387;42.672;23.334;2022-07-29T00:20:20;9.8;;;8.0;;
40012;SDS011;37387;42.672;23.334;2022-07-29T00:21:20;11.3;;;8.1;;
40012;SDS011;37387;42.672;23.334;2022-07-29T00:22:20;10.6;;;7.9;;
40012;SDS011;37387;42.672;23.334;2022-07-29T00:23:20;8.8;;;7.2;;
40012;SDS011;37387;42.672;23.334;2022-07-29T00:24:20;8.8;;;7.8;;
40012;SDS011;37387;42.672;23.334;2022-07-29T00:25:20;11.9;;;7.5;;
40012;SDS011;37387;42.672;23.334;2022-07-29T00:26:20;9.0;;;7.7;;
40012;SDS011;37387;42.672;23.334;2022-07-29T00:27:20;10.9;;;7.9;;
40012;SDS011;37387;42.672;23.334;2022-07-29T00:28:20;11.2;;;7.8;;
40012;SDS011;37387;42.672;23.334;2022-07-29T00:29:20;10.4;;;7.7;;
40012;SDS011;37387;42.672;23.334;2022-07-29T00:30:21;10.9;;;7.9;;
40012;SDS011;37387;42.672;23.334;2022-07-29T00:31:21;10.5;;;7.3;;
40012;SDS011;37387;42.672;23.334;2022-07-29T00:32:21;9.5;;;7.4;;
40012;SDS011;37387;42.672;23.334;2022-07-29T00:33:21;14.6;;;7.9;;
40012;SDS011;37387;42.672;23.334;2022-07-29T00:34:21;12.1;;;8.0;;
40012;SDS011;37387;42.672;23.334;2022-07-29T00:35:21;12.1;;;7.5;;
40012;SDS011;37387;42.672;23.334;2022-07-29T00:36:21;10.9;;;7.9;;
40012;SDS011;37387;42.672;23.334;2022-07-29T00:37:21;9.6;;;7.4;;
40012;SDS011;37387;42.672;23.334;2022-07-29T00:38:21;9.6;;;8.0;;
40012;SDS011;37387;42.672;23.334;2022-07-29T00:39:21;8.6;;;7.4;;
40012;SDS011;37387;42.672;23.334;2022-07-29T00:40:21;10.2;;;7.7;;
40012;SDS011;37387;42.672;23.334;2022-07-29T00:41:21;13.3;;;7.8;;
40012;SDS011;37387;42.672;23.334;2022-07-29T00:42:21;13.3;;;7.0;;
40012;SDS011;37387;42.672;23.334;2022-07-29T00:43:21;10.8;;;7.6;;
40012;SDS011;37387;42.672;23.334;2022-07-29T00:44:21;10.3;;;7.3;;
40012;SDS011;37387;42.672;23.334;2022-07-29T00:45:22;10.3;;;8.0;;
40012;SDS011;37387;42.672;23.334;2022-07-29T00:46:22;10.3;;;8.1;;
40012;SDS011;37387;42.672;23.334;2022-07-29T00:47:22;9.8;;;7.8;;
40012;SDS011;37387;42.672;23.334;2022-07-29T00:48:22;9.8;;;8.1;;
40012;SDS011;37387;42.672;23.334;2022-07-29T00:49:22;11.8;;;8.0;;
40012;SDS011;37387;42.672;23.334;2022-07-29T00:50:22;11.8;;;7.6;;
40012;SDS011;37387;42.672;23.334;2022-07-29T00:51:22;9.6;;;7.3;;
40012;SDS011;37387;42.672;23.334;2022-07-29T00:52:22;11.6;;;8.3;;
40012;SDS011;37387;42.672;23.334;2022-07-29T00:53:22;9.9;;;7.6;;
40012;SDS011;37387;42.672;23.334;2022-07-29T00:54:22;9.9;;;7.4;;
40012;SDS011;37387;42.672;23.334;2022-07-29T00:56:22;9.1;;;7.8;;
40012;SDS011;37387;42.672;23.334;2022-07-29T00:57:22;11.1;;;8.5;;
40012;SDS011;37387;42.672;23.334;2022-07-29T00:58:23;11.5;;;8.4;;
40012;SDS011;37387;42.672;23.334;2022-07-29T00:59:22;11.2;;;8.3;;
40012;SDS011;37387;42.672;23.334;2022-07-29T01:00:23;11.2;;;7.9;;
40012;SDS011;37387;42.672;23.334;2022-07-29T01:01:23;10.0;;;7.5;;
40012;SDS011;37387;42.672;23.334;2022-07-29T01:02:23;10.4;;;8.0;;
40012;SDS011;37387;42.672;23.334;2022-07-29T01:04:23;10.8;;;8.5;;
40012;SDS011;37387;42.672;23.334;2022-07-29T01:05:24;12.1;;;8.9;;
40012;SDS011;37387;42.672;23.334;2022-07-29T01:06:23;12.1;;;8.6;;
40012;SDS011;37387;42.672;23.334;2022-07-29T01:07:23;12.3;;;9.8;;
40012;SDS011;37387;42.672;23.334;2022-07-29T01:09:23;15.9;;;9.6;;
40012;SDS011;37387;42.672;23.334;2022-07-29T01:10:23;15.9;;;10.5;;
40012;SDS011;37387;42.672;23.334;2022-07-29T01:11:23;14.7;;;10.6;;
40012;SDS011;37387;42.672;23.334;2022-07-29T01:12:24;18.0;;;10.7;;
40012;SDS011;37387;42.672;23.334;2022-07-29T01:13:23;18.0;;;10.9;;
40012;SDS011;37387;42.672;23.334;2022-07-29T01:14:23;14.6;;;11.0;;
40012;SDS011;37387;42.672;23.334;2022-07-29T01:15:24;16.3;;;11.5;;
40012;SDS011;37387;42.672;23.334;2022-07-29T01:16:25;16.3;;;11.1;;
40012;SDS011;37387;42.672;23.334;2022-07-29T01:17:26;16.9;;;11.3;;
40012;SDS011;37387;42.672;23.334;2022-07-29T01:18:26;16.3;;;11.7;;
40012;SDS011;37387;42.672;23.334;2022-07-29T01:19:31;15.5;;;11.8;;
40012;SDS011;37387;42.672;23.334;2022-07-29T01:20:26;16.5;;;11.4;;
40012;SDS011;37387;42.672;23.334;2022-07-29T01:21:30;15.3;;;11.2;;
40012;SDS011;37387;42.672;23.334;2022-07-29T01:23:30;16.7;;;11.1;;
40012;SDS011;37387;42.672;23.334;2022-07-29T01:24:30;15.6;;;11.9;;
40012;SDS011;37387;42.672;23.334;2022-07-29T01:25:30;16.2;;;11.2;;
40012;SDS011;37387;42.672;23.334;2022-07-29T01:26:31;16.2;;;12.1;;
40012;SDS011;37387;42.672;23.334;2022-07-29T01:27:30;18.5;;;11.9;;
40012;SDS011;37387;42.672;23.334;2022-07-29T01:29:25;17.3;;;12.1;;
40012;SDS011;37387;42.672;23.334;2022-07-29T01:30:25;16.8;;;10.8;;
40012;SDS011;37387;42.672;23.334;2022-07-29T01:31:27;18.2;;;11.6;;
40012;SDS011;37387;42.672;23.334;2022-07-29T01:32:26;17.5;;;12.1;;
40012;SDS011;37387;42.672;23.334;2022-07-29T01:33:25;17.5;;;11.7;;
40012;SDS011;37387;42.672;23.334;2022-07-29T01:34:27;15.8;;;11.1;;
40012;SDS011;37387;42.672;23.334;2022-07-29T01:35:26;15.8;;;10.9;;
40012;SDS011;37387;42.672;23.334;2022-07-29T01:36:25;16.7;;;11.1;;
40012;SDS011;37387;42.672;23.334;2022-07-29T01:37:26;14.6;;;11.6;;
40012;SDS011;37387;42.672;23.334;2022-07-29T01:38:25;16.3;;;10.9;;
40012;SDS011;37387;42.672;23.334;2022-07-29T01:39:26;16.3;;;11.8;;
40012;SDS011;37387;42.672;23.334;2022-07-29T01:40:25;16.9;;;12.0;;
40012;SDS011;37387;42.672;23.334;2022-07-29T01:41:25;17.8;;;12.5;;
40012;SDS011;37387;42.672;23.334;2022-07-29T01:42:27;19.3;;;12.1;;
40012;SDS011;37387;42.672;23.334;2022-07-29T01:43:27;18.6;;;12.5;;
40012;SDS011;37387;42.672;23.334;2022-07-29T01:45:26;20.9;;;12.9;;
40012;SDS011;37387;42.672;23.334;2022-07-29T01:46:28;19.2;;;13.4;;
40012;SDS011;37387;42.672;23.334;2022-07-29T01:47:26;18.3;;;13.5;;
40012;SDS011;37387;42.672;23.334;2022-07-29T01:48:27;18.3;;;12.6;;
40012;SDS011;37387;42.672;23.334;2022-07-29T01:49:27;16.8;;;11.9;;
40012;SDS011;37387;42.672;23.334;2022-07-29T01:50:27;16.8;;;12.8;;
40012;SDS011;37387;42.672;23.334;2022-07-29T01:51:29;20.0;;;12.6;;
40012;SDS011;37387;42.672;23.334;2022-07-29T01:52:31;20.0;;;14.0;;
40012;SDS011;37387;42.672;23.334;2022-07-29T01:53:34;24.5;;;12.4;;
40012;SDS011;37387;42.672;23.334;2022-07-29T01:54:28;21.1;;;13.1;;
40012;SDS011;37387;42.672;23.334;2022-07-29T01:55:28;18.3;;;12.4;;
40012;SDS011;37387;42.672;23.334;2022-07-29T01:56:26;18.3;;;12.8;;
40012;SDS011;37387;42.672;23.334;2022-07-29T01:57:28;17.4;;;12.3;;
40012;SDS011;37387;42.672;23.334;2022-07-29T01:58:26;19.7;;;13.1;;
40012;SDS011;37387;42.672;23.334;2022-07-29T01:59:26;18.1;;;12.7;;
40012;SDS011;37387;42.672;23.334;2022-07-29T02:01:26;17.6;;;13.1;;
40012;SDS011;37387;42.672;23.334;2022-07-29T02:02:26;19.7;;;12.6;;
40012;SDS011;37387;42.672;23.334;2022-07-29T02:03:26;18.0;;;14.0;;
40012;SDS011;37387;42.672;23.334;2022-07-29T02:05:27;20.4;;;13.1;;
40012;SDS011;37387;42.672;23.334;2022-07-29T02:06:26;20.1;;;13.7;;
40012;SDS011;37387;42.672;23.334;2022-07-29T02:07:28;20.1;;;13.3;;
40012;SDS011;37387;42.672;23.334;2022-07-29T02:08:27;20.6;;;14.3;;
40012;SDS011;37387;42.672;23.334;2022-07-29T02:09:27;21.6;;;14.7;;
40012;SDS011;37387;42.672;23.334;2022-07-29T02:10:28;21.7;;;14.5;;
40012;SDS011;37387;42.672;23.334;2022-07-29T02:11:27;20.1;;;14.1;;
40012;SDS011;37387;42.672;23.334;2022-07-29T02:12:27;20.1;;;14.2;;
40012;SDS011;37387;42.672;23.334;2022-07-29T02:15:28;21.6;;;15.0;;
40012;SDS011;37387;42.672;23.334;2022-07-29T02:16:28;19.5;;;14.0;;
40012;SDS011;37387;42.672;23.334;2022-07-29T02:18:27;19.4;;;14.2;;
40012;SDS011;37387;42.672;23.334;2022-07-29T02:19:27;19.8;;;13.9;;
40012;SDS011;37387;42.672;23.334;2022-07-29T02:20:28;19.8;;;13.5;;
40012;SDS011;37387;42.672;23.334;2022-07-29T02:21:27;18.6;;;13.7;;
40012;SDS011;37387;42.672;23.334;2022-07-29T02:22:28;20.4;;;14.0;;
40012;SDS011;37387;42.672;23.334;2022-07-29T02:23:27;19.5;;;13.6;;
40012;SDS011;37387;42.672;23.334;2022-07-29T02:24:28;19.2;;;13.5;;
40012;SDS011;37387;42.672;23.334;2022-07-29T02:25:28;16.9;;;12.7;;
40012;SDS011;37387;42.672;23.334;2022-07-29T02:26:28;16.9;;;13.7;;
40012;SDS011;37387;42.672;23.334;2022-07-29T02:27:28;19.4;;;13.4;;
40012;SDS011;37387;42.672;23.334;2022-07-29T02:28:28;19.2;;;12.4;;
40012;SDS011;37387;42.672;23.334;2022-07-29T02:29:28;17.5;;;12.5;;
40012;SDS011;37387;42.672;23.334;2022-07-29T02:30:28;17.5;;;12.7;;
40012;SDS011;37387;42.672;23.334;2022-07-29T02:31:29;18.9;;;13.6;;
40012;SDS011;37387;42.672;23.334;2022-07-29T02:32:28;18.2;;;12.9;;
40012;SDS011;37387;42.672;23.334;2022-07-29T02:33:28;18.2;;;13.6;;
40012;SDS011;37387;42.672;23.334;2022-07-29T02:34:28;23.2;;;13.8;;
40012;SDS011;37387;42.672;23.334;2022-07-29T02:35:28;23.2;;;12.7;;
40012;SDS011;37387;42.672;23.334;2022-07-29T02:36:28;18.3;;;13.3;;
40012;SDS011;37387;42.672;23.334;2022-07-29T02:37:28;21.0;;;13.5;;
40012;SDS011;37387;42.672;23.334;2022-07-29T02:38:28;20.5;;;13.7;;
40012;SDS011;37387;42.672;23.334;2022-07-29T02:39:28;20.5;;;14.7;;
40012;SDS011;37387;42.672;23.334;2022-07-29T02:40:28;21.8;;;14.2;;
40012;SDS011;37387;42.672;23.334;2022-07-29T02:41:28;20.5;;;14.1;;
40012;SDS011;37387;42.672;23.334;2022-07-29T02:42:29;20.7;;;13.8;;
40012;SDS011;37387;42.672;23.334;2022-07-29T02:43:29;20.1;;;13.9;;
40012;SDS011;37387;42.672;23.334;2022-07-29T02:44:28;19.3;;;14.2;;
40012;SDS011;37387;42.672;23.334;2022-07-29T02:45:28;19.1;;;13.2;;
40012;SDS011;37387;42.672;23.334;2022-07-29T02:46:29;19.1;;;12.7;;
40012;SDS011;37387;42.672;23.334;2022-07-29T02:47:30;16.5;;;13.4;;
40012;SDS011;37387;42.672;23.334;2022-07-29T02:48:31;18.7;;;12.7;;
40012;SDS011;37387;42.672;23.334;2022-07-29T02:49:31;19.2;;;12.8;;
40012;SDS011;37387;42.672;23.334;2022-07-29T02:50:29;19.2;;;12.6;;
40012;SDS011;37387;42.672;23.334;2022-07-29T02:51:32;18.1;;;13.2;;
40012;SDS011;37387;42.672;23.334;2022-07-29T02:52:31;19.3;;;12.7;;
40012;SDS011;37387;42.672;23.334;2022-07-29T02:53:29;18.3;;;11.5;;
40012;SDS011;37387;42.672;23.334;2022-07-29T02:54:31;17.2;;;11.9;;
40012;SDS011;37387;42.672;23.334;2022-07-29T02:55:30;17.2;;;11.5;;
40012;SDS011;37387;42.672;23.334;2022-07-29T02:56:29;17.9;;;10.8;;
40012;SDS011;37387;42.672;23.334;2022-07-29T02:57:31;17.9;;;9.6;;
40012;SDS011;37387;42.672;23.334;2022-07-29T02:58:31;13.0;;;10.3;;
40012;SDS011;37387;42.672;23.334;2022-07-29T02:59:30;14.0;;;9.8;;
40012;SDS011;37387;42.672;23.334;2022-07-29T03:00:30;14.0;;;9.7;;
40012;SDS011;37387;42.672;23.334;2022-07-29T03:01:30;13.3;;;9.8;;
40012;SDS011;37387;42.672;23.334;2022-07-29T03:02:29;13.3;;;10.6;;
40012;SDS011;37387;42.672;23.334;2022-07-29T03:03:31;14.9;;;11.3;;
40012;SDS011;37387;42.672;23.334;2022-07-29T03:04:29;16.3;;;10.9;;
40012;SDS011;37387;42.672;23.334;2022-07-29T03:05:29;15.9;;;10.3;;
40012;SDS011;37387;42.672;23.334;2022-07-29T03:07:30;16.5;;;10.6;;
40012;SDS011;37387;42.672;23.334;2022-07-29T03:08:30;14.6;;;10.2;;
40012;SDS011;37387;42.672;23.334;2022-07-29T03:09:30;15.8;;;10.1;;
40012;SDS011;37387;42.672;23.334;2022-07-29T03:10:30;15.8;;;9.5;;
40012;SDS011;37387;42.672;23.334;2022-07-29T03:11:30;14.2;;;9.2;;
40012;SDS011;37387;42.672;23.334;2022-07-29T03:12:30;15.0;;;9.5;;
40012;SDS011;37387;42.672;23.334;2022-07-29T03:13:30;13.6;;;8.9;;
40012;SDS011;37387;42.672;23.334;2022-07-29T03:14:30;11.5;;;8.4;;
40012;SDS011;37387;42.672;23.334;2022-07-29T03:15:30;13.0;;;9.1;;
40012;SDS011;37387;42.672;23.334;2022-07-29T03:16:30;12.8;;;8.3;;
40012;SDS011;37387;42.672;23.334;2022-07-29T03:17:30;11.7;;;8.4;;
40012;SDS011;37387;42.672;23.334;2022-07-29T03:18:30;11.7;;;8.1;;
40012;SDS011;37387;42.672;23.334;2022-07-29T03:19:30;11.4;;;7.6;;
40012;SDS011;37387;42.672;23.334;2022-07-29T03:20:30;12.0;;;8.1;;
40012;SDS011;37387;42.672;23.334;2022-07-29T03:21:30;12.0;;;8.7;;
40012;SDS011;37387;42.672;23.334;2022-07-29T03:22:30;12.9;;;8.6;;
40012;SDS011;37387;42.672;23.334;2022-07-29T03:23:30;11.2;;;8.5;;
40012;SDS011;37387;42.672;23.334;2022-07-29T03:24:31;11.2;;;8.2;;
40012;SDS011;37387;42.672;23.334;2022-07-29T03:25:30;11.4;;;9.3;;
40012;SDS011;37387;42.672;23.334;2022-07-29T03:27:30;13.9;;;9.2;;
40012;SDS011;37387;42.672;23.334;2022-07-29T03:28:30;13.3;;;9.1;;
40012;SDS011;37387;42.672;23.334;2022-07-29T03:29:31;13.3;;;9.6;;
40012;SDS011;37387;42.672;23.334;2022-07-29T03:30:31;15.4;;;9.9;;
40012;SDS011;37387;42.672;23.334;2022-07-29T03:32:31;14.7;;;9.5;;
40012;SDS011;37387;42.672;23.334;2022-07-29T03:33:31;13.8;;;10.1;;
40012;SDS011;37387;42.672;23.334;2022-07-29T03:34:31;14.2;;;9.8;;
40012;SDS011;37387;42.672;23.334;2022-07-29T03:35:31;14.2;;;10.6;;
40012;SDS011;37387;42.672;23.334;2022-07-29T03:36:31;18.0;;;9.9;;
40012;SDS011;37387;42.672;23.334;2022-07-29T03:37:31;15.4;;;10.0;;
40012;SDS011;37387;42.672;23.334;2022-07-29T03:38:32;16.2;;;9.6;;
40012;SDS011;37387;42.672;23.334;2022-07-29T03:39:33;13.2;;;9.4;;
40012;SDS011;37387;42.672;23.334;2022-07-29T03:40:32;13.7;;;9.1;;
40012;SDS011;37387;42.672;23.334;2022-07-29T03:41:31;14.7;;;8.6;;
40012;SDS011;37387;42.672;23.334;2022-07-29T03:42:31;12.6;;;9.0;;
40012;SDS011;37387;42.672;23.334;2022-07-29T03:43:32;12.6;;;9.2;;
40012;SDS011;37387;42.672;23.334;2022-07-29T03:45:32;13.9;;;8.6;;
40012;SDS011;37387;42.672;23.334;2022-07-29T03:46:31;12.9;;;9.1;;
40012;SDS011;37387;42.672;23.334;2022-07-29T03:47:31;11.5;;;8.5;;
40012;SDS011;37387;42.672;23.334;2022-07-29T03:48:32;12.3;;;8.7;;
40012;SDS011;37387;42.672;23.334;2022-07-29T03:49:32;12.2;;;8.8;;
40012;SDS011;37387;42.672;23.334;2022-07-29T03:50:32;12.2;;;9.0;;
40012;SDS011;37387;42.672;23.334;2022-07-29T03:51:32;13.3;;;9.3;;
40012;SDS011;37387;42.672;23.334;2022-07-29T03:52:32;13.9;;;8.6;;
40012;SDS011;37387;42.672;23.334;2022-07-29T03:53:32;13.8;;;8.3;;
40012;SDS011;37387;42.672;23.334;2022-07-29T03:54:32;13.8;;;7.9;;
40012;SDS011;37387;42.672;23.334;2022-07-29T03:55:33;13.2;;;8.2;;
40012;SDS011;37387;42.672;23.334;2022-07-29T03:56:32;11.5;;;8.3;;
40012;SDS011;37387;42.672;23.334;2022-07-29T03:57:32;13.0;;;8.0;;
40012;SDS011;37387;42.672;23.334;2022-07-29T03:58:32;13.0;;;8.1;;
40012;SDS011;37387;42.672;23.334;2022-07-29T03:59:32;10.1;;;8.5;;
40012;SDS011;37387;42.672;23.334;2022-07-29T04:00:32;11.5;;;8.3;;
40012;SDS011;37387;42.672;23.334;2022-07-29T04:01:32;14.4;;;9.0;;
40012;SDS011;37387;42.672;23.334;2022-07-29T04:02:32;13.3;;;8.8;;
40012;SDS011;37387;42.672;23.334;2022-07-29T04:03:33;13.3;;;8.2;;
40012;SDS011;37387;42.672;23.334;2022-07-29T04:04:32;12.5;;;7.9;;
40012;SDS011;37387;42.672;23.334;2022-07-29T04:05:32;12.5;;;7.3;;
40012;SDS011;37387;42.672;23.334;2022-07-29T04:06:37;10.5;;;6.4;;
40012;SDS011;37387;42.672;23.334;2022-07-29T04:07:32;11.0;;;6.5;;
40012;SDS011;37387;42.672;23.334;2022-07-29T04:10:33;10.5;;;6.4;;
40012;SDS011;37387;42.672;23.334;2022-07-29T04:11:33;8.8;;;6.8;;
40012;SDS011;37387;42.672;23.334;2022-07-29T04:12:33;9.4;;;6.3;;
40012;SDS011;37387;42.672;23.334;2022-07-29T04:13:33;9.7;;;6.4;;
40012;SDS011;37387;42.672;23.334;2022-07-29T04:14:33;9.7;;;6.7;;
40012;SDS011;37387;42.672;23.334;2022-07-29T04:15:33;8.7;;;6.5;;
40012;SDS011;37387;42.672;23.334;2022-07-29T04:16:33;8.7;;;6.6;;
40012;SDS011;37387;42.672;23.334;2022-07-29T04:17:33;10.3;;;6.1;;
40012;SDS011;37387;42.672;23.334;2022-07-29T04:18:34;8.2;;;5.5;;
40012;SDS011;37387;42.672;23.334;2022-07-29T04:19:34;10.4;;;6.5;;
40012;SDS011;37387;42.672;23.334;2022-07-29T04:20:34;10.4;;;6.2;;
40012;SDS011;37387;42.672;23.334;2022-07-29T04:22:34;10.5;;;6.6;;
40012;SDS011;37387;42.672;23.334;2022-07-29T04:23:34;8.1;;;6.1;;
40012;SDS011;37387;42.672;23.334;2022-07-29T04:24:34;8.1;;;5.9;;
40012;SDS011;37387;42.672;23.334;2022-07-29T04:25:36;8.3;;;6.5;;
40012;SDS011;37387;42.672;23.334;2022-07-29T04:26:35;9.7;;;6.3;;
40012;SDS011;37387;42.672;23.334;2022-07-29T04:27:35;9.7;;;6.1;;
40012;SDS011;37387;42.672;23.334;2022-07-29T04:28:35;8.7;;;6.2;;
40012;SDS011;37387;42.672;23.334;2022-07-29T04:29:35;8.7;;;6.4;;
40012;SDS011;37387;42.672;23.334;2022-07-29T04:30:36;10.3;;;6.7;;
40012;SDS011;37387;42.672;23.334;2022-07-29T04:31:35;10.1;;;6.6;;
40012;SDS011;37387;42.672;23.334;2022-07-29T04:32:35;10.1;;;6.4;;
40012;SDS011;37387;42.672;23.334;2022-07-29T04:33:36;9.9;;;6.8;;
40012;SDS011;37387;42.672;23.334;2022-07-29T04:34:36;9.1;;;7.0;;
40012;SDS011;37387;42.672;23.334;2022-07-29T04:35:36;10.4;;;6.5;;
40012;SDS011;37387;42.672;23.334;2022-07-29T04:36:36;9.8;;;6.1;;
40012;SDS011;37387;42.672;23.334;2022-07-29T04:37:36;10.5;;;6.7;;
40012;SDS011;37387;42.672;23.334;2022-07-29T04:38:37;10.3;;;6.6;;
40012;SDS011;37387;42.672;23.334;2022-07-29T04:39:36;8.8;;;6.0;;
40012;SDS011;37387;42.672;23.334;2022-07-29T04:40:37;8.8;;;6.2;;
40012;SDS011;37387;42.672;23.334;2022-07-29T04:41:37;9.2;;;6.4;;
40012;SDS011;37387;42.672;23.334;2022-07-29T04:42:37;11.2;;;6.6;;
40012;SDS011;37387;42.672;23.334;2022-07-29T04:43:37;13.1;;;6.2;;
40012;SDS011;37387;42.672;23.334;2022-07-29T04:44:37;11.1;;;6.7;;
40012;SDS011;37387;42.672;23.334;2022-07-29T04:45:37;11.1;;;6.8;;
40012;SDS011;37387;42.672;23.334;2022-07-29T04:46:38;9.3;;;6.9;;
40012;SDS011;37387;42.672;23.334;2022-07-29T04:47:38;9.3;;;6.6;;
40012;SDS011;37387;42.672;23.334;2022-07-29T04:48:38;10.6;;;6.8;;
40012;SDS011;37387;42.672;23.334;2022-07-29T04:49:38;10.2;;;6.6;;
40012;SDS011;37387;42.672;23.334;2022-07-29T04:50:38;10.3;;;6.4;;
40012;SDS011;37387;42.672;23.334;2022-07-29T04:51:38;9.5;;;6.5;;
40012;SDS011;37387;42.672;23.334;2022-07-29T04:52:39;9.5;;;5.6;;
40012;SDS011;37387;42.672;23.334;2022-07-29T04:53:39;6.8;;;5.5;;
40012;SDS011;37387;42.672;23.334;2022-07-29T04:54:39;10.5;;;6.4;;
40012;SDS011;37387;42.672;23.334;2022-07-29T04:55:39;10.5;;;5.8;;
40012;SDS011;37387;42.672;23.334;2022-07-29T04:56:39;9.7;;;6.6;;
40012;SDS011;37387;42.672;23.334;2022-07-29T04:57:40;9.7;;;6.3;;
40012;SDS011;37387;42.672;23.334;2022-07-29T04:58:40;8.6;;;6.0;;
40012;SDS011;37387;42.672;23.334;2022-07-29T04:59:40;8.8;;;5.8;;
40012;SDS011;37387;42.672;23.334;2022-07-29T05:00:40;8.8;;;6.2;;
40012;SDS011;37387;42.672;23.334;2022-07-29T05:01:40;9.1;;;6.1;;
40012;SDS011;37387;42.672;23.334;2022-07-29T05:02:41;9.1;;;6.6;;
40012;SDS011;37387;42.672;23.334;2022-07-29T05:03:41;9.5;;;6.3;;
40012;SDS011;37387;42.672;23.334;2022-07-29T05:04:41;9.4;;;6.4;;
40012;SDS011;37387;42.672;23.334;2022-07-29T05:05:41;9.4;;;5.8;;
40012;SDS011;37387;42.672;23.334;2022-07-29T05:06:41;10.8;;;6.3;;
40012;SDS011;37387;42.672;23.334;2022-07-29T05:07:42;8.8;;;6.2;;
40012;SDS011;37387;42.672;23.334;2022-07-29T05:08:42;8.8;;;5.7;;
40012;SDS011;37387;42.672;23.334;2022-07-29T05:11:42;8.7;;;5.9;;
40012;SDS011;37387;42.672;23.334;2022-07-29T05:12:43;11.5;;;6.4;;
40012;SDS011;37387;42.672;23.334;2022-07-29T05:13:43;8.5;;;6.3;;
40012;SDS011;37387;42.672;23.334;2022-07-29T05:14:43;7.3;;;5.6;;
40012;SDS011;37387;42.672;23.334;2022-07-29T05:15:43;7.8;;;5.8;;
40012;SDS011;37387;42.672;23.334;2022-07-29T05:16:43;7.8;;;6.3;;
40012;SDS011;37387;42.672;23.334;2022-07-29T05:17:44;10.2;;;6.2;;
40012;SDS011;37387;42.672;23.334;2022-07-29T05:18:44;8.6;;;6.1;;
40012;SDS011;37387;42.672;23.334;2022-07-29T05:19:44;8.6;;;5.7;;
40012;SDS011;37387;42.672;23.334;2022-07-29T05:20:44;8.9;;;6.0;;
40012;SDS011;37387;42.672;23.334;2022-07-29T05:21:45;8.9;;;6.3;;
40012;SDS011;37387;42.672;23.334;2022-07-29T05:22:45;8.6;;;6.0;;
40012;SDS011;37387;42.672;23.334;2022-07-29T05:23:46;7.2;;;5.6;;
40012;SDS011;37387;42.672;23.334;2022-07-29T05:24:47;7.2;;;5.9;;
40012;SDS011;37387;42.672;23.334;2022-07-29T05:25:47;8.9;;;6.3;;
40012;SDS011;37387;42.672;23.334;2022-07-29T05:26:46;9.5;;;6.4;;
40012;SDS011;37387;42.672;23.334;2022-07-29T05:27:46;9.5;;;6.2;;
40012;SDS011;37387;42.672;23.334;2022-07-29T05:28:47;7.1;;;5.4;;
40012;SDS011;37387;42.672;23.334;2022-07-29T05:29:47;8.7;;;5.7;;
40012;SDS011;37387;42.672;23.334;2022-07-29T05:31:46;8.7;;;5.6;;
40012;SDS011;37387;42.672;23.334;2022-07-29T05:32:47;8.0;;;5.4;;
40012;SDS011;37387;42.672;23.334;2022-07-29T05:33:47;8.7;;;5.2;;
40012;SDS011;37387;42.672;23.334;2022-07-29T05:34:47;8.7;;;5.4;;
40012;SDS011;37387;42.672;23.334;2022-07-29T05:36:47;9.3;;;5.5;;
40012;SDS011;37387;42.672;23.334;2022-07-29T05:37:47;9.3;;;5.6;;
40012;SDS011;37387;42.672;23.334;2022-07-29T05:38:48;8.8;;;5.5;;
40012;SDS011;37387;42.672;23.334;2022-07-29T05:39:48;8.8;;;5.1;;
40012;SDS011;37387;42.672;23.334;2022-07-29T05:40:48;6.5;;;5.2;;
40012;SDS011;37387;42.672;23.334;2022-07-29T05:41:48;6.1;;;4.8;;
40012;SDS011;37387;42.672;23.334;2022-07-29T05:43:49;9.1;;;5.2;;
40012;SDS011;37387;42.672;23.334;2022-07-29T05:45:49;10.7;;;4.8;;
40012;SDS011;37387;42.672;23.334;2022-07-29T05:47:50;6.5;;;5.1;;
40012;SDS011;37387;42.672;23.334;2022-07-29T05:49:50;7.3;;;5.4;;
40012;SDS011;37387;42.672;23.334;2022-07-29T05:50:50;6.1;;;5.0;;
40012;SDS011;37387;42.672;23.334;2022-07-29T05:52:51;7.0;;;4.7;;
40012;SDS011;37387;42.672;23.334;2022-07-29T05:53:51;7.2;;;5.0;;
40012;SDS011;37387;42.672;23.334;2022-07-29T05:54:51;9.3;;;5.6;;
40012;SDS011;37387;42.672;23.334;2022-07-29T05:55:51;9.3;;;4.8;;
40012;SDS011;37387;42.672;23.334;2022-07-29T05:56:51;7.9;;;5.2;;
40012;SDS011;37387;42.672;23.334;2022-07-29T05:58:52;9.0;;;5.1;;
40012;SDS011;37387;42.672;23.334;2022-07-29T05:59:53;9.0;;;5.3;;
40012;SDS011;37387;42.672;23.334;2022-07-29T06:00:52;7.5;;;4.8;;
40012;SDS011;37387;42.672;23.334;2022-07-29T06:01:52;7.5;;;4.1;;
40012;SDS011;37387;42.672;23.334;2022-07-29T06:02:53;4.7;;;4.7;;
40012;SDS011;37387;42.672;23.334;2022-07-29T06:03:53;5.5;;;4.6;;
40012;SDS011;37387;42.672;23.334;2022-07-29T06:04:53;7.0;;;4.7;;
40012;SDS011;37387;42.672;23.334;2022-07-29T06:05:53;7.0;;;4.9;;
40012;SDS011;37387;42.672;23.334;2022-07-29T06:06:54;7.5;;;4.4;;
40012;SDS011;37387;42.672;23.334;2022-07-29T06:07:54;7.5;;;4.5;;
40012;SDS011;37387;42.672;23.334;2022-07-29T06:08:54;4.8;;;4.3;;
40012;SDS011;37387;42.672;23.334;2022-07-29T06:09:54;9.0;;;4.5;;
40012;SDS011;37387;42.672;23.334;2022-07-29T06:10:54;9.0;;;4.2;;
40012;SDS011;37387;42.672;23.334;2022-07-29T06:11:56;5.7;;;4.0;;
40012;SDS011;37387;42.672;23.334;2022-07-29T06:13:55;6.7;;;4.1;;
40012;SDS011;37387;42.672;23.334;2022-07-29T06:14:55;6.8;;;3.9;;
40012;SDS011;37387;42.672;23.334;2022-07-29T06:15:56;6.8;;;4.0;;
40012;SDS011;37387;42.672;23.334;2022-07-29T06:16:56;6.2;;;4.3;;
40012;SDS011;37387;42.672;23.334;2022-07-29T06:17:56;7.6;;;4.0;;
40012;SDS011;37387;42.672;23.334;2022-07-29T06:18:56;6.4;;;3.9;;
40012;SDS011;37387;42.672;23.334;2022-07-29T06:20:57;5.0;;;4.2;;
40012;SDS011;37387;42.672;23.334;2022-07-29T06:21:57;6.1;;;4.3;;
40012;SDS011;37387;42.672;23.334;2022-07-29T06:22:57;7.6;;;4.1;;
40012;SDS011;37387;42.672;23.334;2022-07-29T06:23:57;7.3;;;4.4;;
40012;SDS011;37387;42.672;23.334;2022-07-29T06:24:58;7.3;;;4.1;;
40012;SDS011;37387;42.672;23.334;2022-07-29T06:25:58;6.0;;;4.2;;
40012;SDS011;37387;42.672;23.334;2022-07-29T06:26:58;6.0;;;4.3;;
40012;SDS011;37387;42.672;23.334;2022-07-29T06:27:58;5.9;;;4.5;;
40012;SDS011;37387;42.672;23.334;2022-07-29T06:28:59;6.7;;;4.4;;
40012;SDS011;37387;42.672;23.334;2022-07-29T06:29:59;6.7;;;4.0;;
40012;SDS011;37387;42.672;23.334;2022-07-29T06:30:59;5.2;;;3.9;;
40012;SDS011;37387;42.672;23.334;2022-07-29T06:31:59;9.5;;;4.2;;
40012;SDS011;37387;42.672;23.334;2022-07-29T06:33:00;9.5;;;3.9;;
40012;SDS011;37387;42.672;23.334;2022-07-29T06:34:00;5.7;;;3.7;;
40012;SDS011;37387;42.672;23.334;2022-07-29T06:36:00;6.5;;;4.4;;
40012;SDS011;37387;42.672;23.334;2022-07-29T06:37:02;4.7;;;3.6;;